Ames, Texas
Current Conditions -  °F | °C
As of 2:35 PM on Tuesday 21 Oct 2014 (Local Time) from K6R3 Reporting Station
Clear Clear  
Wind Chill: 80°   Ceiling: Unl
Heat Index: 81°   Visibility: 10mi
Dew Point: 60°   Wind: 3mph
Humidity: 49%   Direction: 50°NE
Pressure: 30.02"   Gusts: NA
Location:  30.0821°N, 94.7401°W
Report Text: K6R3 211935Z AUTO 05003KT 10SM CLR 27/16 A3002 RMK AO2 T02690155
Loading
Personal Weather Stations






























Interactive Weather Map
Tropical Storm Tracking
New forecast layout! Learn more

10-Day Weather Forecast

Advertisements
Track Severe Weather on mobile